createdAt,value
2023-05-01T00:00:23.571Z,6.40
2023-05-01T00:02:54.713Z,5.57
2023-05-01T00:05:22.972Z,3.53
2023-05-01T00:07:51.203Z,3.20
2023-05-01T00:10:20.385Z,8.37
2023-05-01T00:12:48.472Z,8.20
2023-05-01T00:15:16.726Z,4.67
2023-05-01T00:17:45.662Z,5.50
2023-05-01T00:20:15.535Z,5.63
2023-05-01T00:22:43.706Z,7.13
2023-05-01T00:25:12.214Z,5.90
2023-05-01T00:27:40.433Z,4.67
2023-05-01T00:30:10.076Z,6.27
2023-05-01T00:32:39.195Z,3.60
2023-05-01T00:35:08.091Z,3.10
2023-05-01T00:37:38.454Z,2.00
2023-05-01T00:40:08.160Z,7.20
2023-05-01T00:42:37.251Z,3.77
2023-05-01T00:45:06.612Z,2.63
2023-05-01T00:47:36.904Z,3.40
2023-05-01T00:50:05.920Z,3.57
2023-05-01T00:52:34.261Z,3.40
2023-05-01T00:55:05.530Z,6.30
2023-05-01T00:57:34.125Z,6.87
2023-05-01T01:00:02.229Z,2.57
2023-05-01T01:02:31.037Z,4.10
2023-05-01T01:04:59.721Z,4.50
2023-05-01T01:07:37.918Z,4.13
2023-05-01T01:10:20.577Z,3.40
2023-05-01T01:12:56.099Z,5.77
2023-05-01T01:15:30.203Z,4.70
2023-05-01T01:18:05.486Z,3.77
2023-05-01T01:20:40.165Z,5.00
2023-05-01T01:23:40.919Z,2.00
2023-05-01T01:26:40.291Z,4.73
2023-05-01T01:29:33.710Z,5.83
2023-05-01T01:32:11.080Z,4.53
2023-05-01T01:34:46.535Z,5.30
2023-05-01T01:37:21.694Z,6.20
2023-05-01T01:39:55.548Z,9.60
2023-05-01T01:42:28.041Z,4.37
2023-05-01T01:45:00.230Z,5.00
2023-05-01T01:47:32.574Z,4.90
2023-05-01T01:50:06.270Z,3.63
2023-05-01T01:52:36.308Z,4.53
2023-05-01T01:55:09.842Z,6.50
2023-05-01T01:57:39.651Z,1.60
2023-05-01T02:00:12.005Z,5.83
2023-05-01T02:02:41.355Z,9.00
2023-05-01T02:05:15.261Z,7.70
2023-05-01T02:07:47.166Z,4.70
2023-05-01T02:10:18.026Z,7.23
2023-05-01T02:12:49.411Z,2.37
2023-05-01T02:15:19.988Z,6.57
2023-05-01T02:17:49.915Z,9.70
2023-05-01T02:20:21.452Z,2.30
2023-05-01T02:22:52.098Z,5.03
2023-05-01T02:25:20.699Z,7.17
2023-05-01T02:27:54.730Z,5.53
2023-05-01T02:30:23.435Z,5.07
2023-05-01T02:32:51.989Z,6.13
2023-05-01T02:35:22.121Z,5.63
2023-05-01T02:37:51.445Z,3.77
2023-05-01T02:40:20.162Z,8.80
2023-05-01T02:42:51.382Z,4.40
2023-05-01T02:45:21.846Z,1.97
2023-05-01T02:47:52.639Z,8.17
2023-05-01T02:50:24.512Z,8.70
2023-05-01T02:52:53.750Z,12.00
2023-05-01T02:55:21.983Z,5.33
2023-05-01T02:57:52.312Z,6.77
2023-05-01T03:00:21.302Z,12.77
2023-05-01T03:02:49.518Z,10.47
2023-05-01T03:05:18.012Z,8.67
2023-05-01T03:07:48.896Z,16.73
2023-05-01T03:10:17.073Z,6.77
2023-05-01T03:12:45.484Z,15.93
2023-05-01T03:15:13.766Z,6.77
2023-05-01T03:17:42.003Z,7.73
2023-05-01T03:20:11.098Z,6.97
2023-05-01T03:22:39.628Z,5.00
2023-05-01T03:25:10.541Z,5.77
2023-05-01T03:27:38.797Z,8.33
2023-05-01T03:30:09.031Z,9.17
2023-05-01T03:32:37.489Z,5.87
2023-05-01T03:35:06.322Z,6.23
2023-05-01T03:37:35.018Z,4.63
2023-05-01T03:40:03.604Z,9.57
2023-05-01T03:42:33.050Z,3.33
2023-05-01T03:45:01.312Z,8.20
2023-05-01T03:47:29.864Z,12.40
2023-05-01T03:49:58.378Z,7.70
2023-05-01T03:52:27.469Z,6.90
2023-05-01T03:54:56.521Z,8.70
2023-05-01T03:57:24.952Z,4.43
2023-05-01T03:59:55.615Z,5.20
2023-05-01T04:02:24.666Z,5.43
2023-05-01T04:04:52.981Z,8.13
2023-05-01T04:07:21.646Z,6.00
2023-05-01T04:09:50.474Z,8.57
2023-05-01T04:12:19.223Z,4.70
2023-05-01T04:14:48.003Z,9.20
2023-05-01T04:17:17.593Z,9.07
2023-05-01T04:19:48.018Z,5.97
2023-05-01T04:22:16.319Z,8.17
2023-05-01T04:24:44.529Z,9.60
2023-05-01T04:27:12.827Z,9.23
2023-05-01T04:29:41.956Z,8.90
2023-05-01T04:32:10.198Z,18.00
2023-05-01T04:34:39.773Z,9.43
2023-05-01T04:37:09.319Z,6.63
2023-05-01T04:39:37.424Z,10.73
2023-05-01T04:42:06.308Z,6.90
2023-05-01T04:44:36.428Z,6.20
2023-05-01T04:47:04.792Z,7.80
2023-05-01T04:49:33.189Z,8.77
2023-05-01T04:52:03.148Z,25.17
2023-05-01T04:54:31.254Z,7.70
2023-05-01T04:56:59.807Z,11.93
2023-05-01T04:59:28.466Z,5.90
2023-05-01T05:01:56.737Z,9.30
2023-05-01T05:04:25.734Z,13.67
2023-05-01T05:06:54.509Z,12.97
2023-05-01T05:09:24.114Z,6.97
2023-05-01T05:11:52.343Z,12.20
2023-05-01T05:14:21.089Z,5.57
2023-05-01T05:16:49.365Z,19.80
2023-05-01T05:19:18.089Z,6.97
2023-05-01T05:21:46.666Z,12.13
2023-05-01T05:24:15.125Z,12.63
2023-05-01T05:26:44.990Z,7.20
2023-05-01T05:29:13.617Z,8.27
2023-05-01T05:31:41.843Z,9.20
2023-05-01T05:34:10.112Z,13.63
2023-05-01T05:36:38.452Z,8.90
2023-05-01T05:39:06.789Z,7.07
2023-05-01T05:41:35.414Z,10.33
2023-05-01T05:44:05.564Z,9.37
2023-05-01T05:46:33.882Z,11.77
2023-05-01T05:49:02.092Z,12.30
2023-05-01T05:51:30.460Z,13.53
2023-05-01T05:53:58.634Z,14.73
2023-05-01T05:56:26.827Z,10.80
2023-05-01T05:58:55.600Z,9.13
2023-05-01T06:01:25.593Z,11.00
2023-05-01T06:03:53.717Z,10.30
2023-05-01T06:06:22.606Z,7.20
2023-05-01T06:08:50.814Z,14.37
2023-05-01T06:11:18.945Z,9.90
2023-05-01T06:13:47.607Z,9.63
2023-05-01T06:16:16.234Z,6.37
2023-05-01T06:18:46.069Z,8.03
2023-05-01T06:21:14.603Z,10.23
2023-05-01T06:23:42.732Z,9.13
2023-05-01T06:26:10.934Z,7.50
2023-05-01T06:28:39.814Z,11.23
2023-05-01T06:31:08.428Z,5.00
2023-05-01T06:33:36.793Z,9.47
2023-05-01T06:36:07.055Z,15.00
2023-05-01T06:38:35.253Z,12.93
2023-05-01T06:41:03.627Z,5.40
2023-05-01T06:43:32.765Z,9.03
2023-05-01T06:46:01.409Z,12.07
2023-05-01T06:48:29.544Z,18.10
2023-05-01T06:50:58.024Z,5.60
2023-05-01T06:53:28.076Z,15.27
2023-05-01T06:55:56.203Z,12.23
2023-05-01T06:58:24.790Z,10.30
2023-05-01T07:00:54.820Z,8.87
2023-05-01T07:03:23.231Z,13.10
2023-05-01T07:05:52.023Z,21.27
2023-05-01T07:08:20.500Z,8.90
2023-05-01T07:10:50.541Z,11.10
2023-05-01T07:13:20.062Z,9.60
2023-05-01T07:15:49.121Z,10.33
2023-05-01T07:18:17.704Z,10.63
2023-05-01T07:20:46.116Z,11.80
2023-05-01T07:23:14.724Z,6.70
2023-05-01T07:25:44.413Z,9.40
2023-05-01T07:28:15.330Z,23.00
2023-05-01T07:30:44.301Z,15.83
2023-05-01T07:33:12.558Z,10.20
2023-05-01T07:35:41.057Z,10.17
2023-05-01T07:38:09.371Z,14.17
2023-05-01T07:40:38.599Z,13.57
2023-05-01T07:43:07.372Z,16.33
2023-05-01T07:45:37.228Z,11.43
2023-05-01T07:48:06.067Z,8.23
2023-05-01T07:50:34.642Z,13.33
2023-05-01T07:53:02.816Z,11.70
2023-05-01T07:55:31.186Z,9.83
2023-05-01T07:57:59.440Z,10.20
2023-05-01T08:00:27.619Z,13.63
2023-05-01T08:02:57.858Z,9.13
2023-05-01T08:05:26.460Z,8.87
2023-05-01T08:07:54.690Z,12.10
2023-05-01T08:10:23.528Z,11.97
2023-05-01T08:12:52.307Z,14.43
2023-05-01T08:15:21.680Z,10.23
2023-05-01T08:17:51.246Z,7.80
2023-05-01T08:20:21.304Z,21.43
2023-05-01T08:22:49.501Z,10.30
2023-05-01T08:25:17.958Z,9.83
2023-05-01T08:27:46.469Z,10.57
2023-05-01T08:30:14.731Z,9.50
2023-05-01T08:32:43.176Z,14.63
2023-05-01T08:35:11.897Z,16.33
2023-05-01T08:37:41.476Z,8.30
2023-05-01T08:40:10.473Z,8.70
2023-05-01T08:42:39.497Z,12.07
2023-05-01T08:45:10.202Z,12.00
2023-05-01T08:47:40.645Z,10.83
2023-05-01T08:50:11.963Z,14.03
2023-05-01T08:52:43.391Z,13.67
2023-05-01T08:55:14.559Z,9.03
2023-05-01T08:57:46.761Z,9.40
2023-05-01T09:00:20.076Z,10.97
2023-05-01T09:02:50.947Z,8.53
2023-05-01T09:05:21.020Z,7.67
2023-05-01T09:07:50.545Z,9.07
2023-05-01T09:10:19.957Z,6.50
2023-05-01T09:12:55.404Z,9.83
2023-05-01T09:15:24.146Z,5.97
2023-05-01T09:17:52.616Z,13.20
2023-05-01T09:20:21.514Z,9.40
2023-05-01T09:22:51.406Z,5.70
2023-05-01T09:25:19.998Z,6.60
2023-05-01T09:27:48.584Z,4.57
2023-05-01T09:30:33.459Z,6.17
2023-05-01T09:33:11.977Z,6.97
2023-05-01T09:35:51.478Z,5.40
2023-05-01T09:38:22.705Z,6.20
2023-05-01T09:40:51.648Z,6.13
2023-05-01T09:43:27.835Z,4.43
2023-05-01T09:46:05.046Z,6.50
2023-05-01T09:48:35.805Z,7.53
2023-05-01T09:51:21.911Z,9.57
2023-05-01T09:53:52.818Z,6.40
2023-05-01T09:56:21.858Z,6.73
2023-05-01T09:58:51.476Z,7.77
2023-05-01T10:01:20.156Z,7.43
2023-05-01T10:03:56.202Z,6.80
2023-05-01T10:06:29.971Z,4.17
2023-05-01T10:08:59.982Z,5.27
2023-05-01T10:11:28.379Z,11.37
2023-05-01T10:14:10.030Z,10.17
2023-05-01T10:16:39.430Z,7.87
2023-05-01T10:19:08.034Z,5.97
2023-05-01T10:21:36.432Z,8.10
2023-05-01T10:24:07.919Z,3.90
2023-05-01T10:26:36.724Z,7.27
2023-05-01T10:29:06.050Z,7.80
2023-05-01T10:31:34.418Z,7.93
2023-05-01T10:34:03.560Z,7.10
2023-05-01T10:36:37.711Z,7.63
2023-05-01T10:39:07.490Z,7.70
2023-05-01T10:42:11.225Z,4.50
2023-05-01T10:44:39.772Z,6.83
2023-05-01T10:47:47.851Z,9.30
2023-05-01T10:50:16.601Z,3.53
2023-05-01T10:53:19.374Z,6.70
2023-05-01T10:55:50.431Z,4.70
2023-05-01T10:58:59.066Z,4.50
2023-05-01T11:01:35.280Z,5.03
2023-05-01T11:04:08.107Z,6.73
2023-05-01T11:06:37.819Z,6.27
2023-05-01T11:09:37.355Z,3.07
2023-05-01T11:12:07.332Z,3.67
2023-05-01T11:15:08.156Z,7.40
2023-05-01T11:17:49.839Z,5.50
2023-05-01T11:20:50.357Z,2.90
2023-05-01T11:23:23.553Z,9.57
2023-05-01T11:26:02.262Z,5.23
2023-05-01T11:28:33.167Z,5.47
2023-05-01T11:31:02.531Z,5.80
2023-05-01T11:33:32.222Z,3.07
2023-05-01T11:36:01.774Z,6.77
2023-05-01T11:38:30.775Z,5.30
2023-05-01T11:41:04.491Z,1.60
2023-05-01T11:43:34.192Z,2.93
2023-05-01T11:46:05.196Z,4.60
2023-05-01T11:48:33.899Z,3.10
2023-05-01T11:51:02.062Z,4.07
2023-05-01T11:53:32.051Z,1.90
2023-05-01T11:56:01.023Z,1.67
2023-05-01T11:58:36.525Z,3.00
2023-05-01T12:01:07.338Z,5.23
2023-05-01T12:03:45.547Z,1.63
2023-05-01T12:06:15.070Z,2.67
2023-05-01T12:08:45.545Z,1.90
2023-05-01T12:11:14.008Z,2.03
2023-05-01T12:13:43.979Z,2.27
2023-05-01T12:16:12.430Z,3.57
2023-05-01T12:18:41.532Z,5.37
2023-05-01T12:21:17.480Z,4.50
2023-05-01T12:23:46.231Z,7.03
2023-05-01T12:26:18.299Z,4.33
2023-05-01T12:28:58.300Z,3.60
2023-05-01T12:31:27.897Z,5.00
2023-05-01T12:33:58.444Z,10.10
2023-05-01T12:36:30.510Z,3.80
2023-05-01T12:39:04.351Z,3.27
2023-05-01T12:41:37.823Z,10.53
2023-05-01T12:44:19.710Z,11.67
2023-05-01T12:46:57.554Z,7.53
2023-05-01T12:49:25.898Z,4.67
2023-05-01T12:51:56.020Z,5.93
2023-05-01T12:54:26.438Z,10.23
2023-05-01T12:57:06.083Z,7.73
2023-05-01T12:59:38.131Z,5.00
2023-05-01T13:02:07.893Z,3.27
2023-05-01T13:04:36.250Z,5.33
2023-05-01T13:07:12.167Z,6.17
2023-05-01T13:09:40.478Z,10.77
2023-05-01T13:12:10.277Z,9.43
2023-05-01T13:14:40.999Z,5.43
2023-05-01T13:17:10.695Z,8.40
2023-05-01T13:19:39.488Z,8.63
2023-05-01T13:22:07.751Z,9.80
2023-05-01T13:24:40.537Z,8.97
2023-05-01T13:27:10.049Z,10.43
2023-05-01T13:32:12.662Z,8.40
2023-05-01T13:34:44.649Z,9.30
2023-05-01T13:37:14.691Z,4.33
2023-05-01T13:39:43.770Z,10.70
2023-05-01T13:42:13.466Z,4.77
2023-05-01T13:44:48.430Z,7.83
2023-05-01T13:47:18.540Z,13.80
2023-05-01T13:49:48.732Z,7.27
2023-05-01T13:52:18.620Z,8.33
2023-05-01T13:54:48.806Z,14.07
2023-05-01T13:57:17.710Z,6.97
2023-05-01T13:59:48.776Z,8.77
2023-05-01T14:02:22.322Z,7.70
2023-05-01T14:04:51.013Z,6.13
2023-05-01T14:07:20.348Z,3.47
2023-05-01T14:09:55.171Z,6.13
2023-05-01T14:12:28.220Z,6.70
2023-05-01T14:14:58.377Z,5.90
2023-05-01T14:17:30.801Z,5.30
2023-05-01T14:19:59.165Z,6.00
2023-05-01T14:22:30.796Z,6.90
2023-05-01T14:24:59.967Z,7.60
2023-05-01T14:27:29.138Z,14.63
2023-05-01T14:29:58.708Z,3.73
2023-05-01T14:32:28.444Z,8.30
2023-05-01T14:34:57.210Z,7.20
2023-05-01T14:37:25.618Z,7.80
2023-05-01T14:39:53.807Z,8.17
2023-05-01T14:42:22.499Z,8.03
2023-05-01T14:44:50.641Z,5.13
2023-05-01T14:47:22.185Z,3.33
2023-05-01T14:49:54.529Z,11.30
2023-05-01T14:52:22.782Z,10.10
2023-05-01T14:54:53.177Z,16.20
2023-05-01T14:57:21.358Z,10.70
2023-05-01T14:59:49.532Z,13.63
2023-05-01T15:02:19.320Z,10.53
2023-05-01T15:04:47.794Z,16.40
2023-05-01T15:07:16.695Z,11.27
2023-05-01T15:09:46.363Z,10.13
2023-05-01T15:12:14.871Z,16.57
2023-05-01T15:14:43.097Z,14.23
2023-05-01T15:17:11.786Z,12.03
2023-05-01T15:19:41.399Z,10.97
2023-05-01T15:22:09.596Z,10.77
2023-05-01T15:24:39.134Z,17.63
2023-05-01T15:27:08.300Z,17.70
2023-05-01T15:29:37.550Z,24.17
2023-05-01T15:32:12.561Z,16.70
2023-05-01T15:34:43.023Z,23.27
2023-05-01T15:37:11.696Z,23.77
2023-05-01T15:39:40.410Z,14.97
2023-05-01T15:42:09.797Z,15.03
2023-05-01T15:44:38.235Z,14.60
2023-05-01T15:47:06.419Z,12.50
2023-05-01T15:49:34.711Z,8.90
2023-05-01T15:52:04.651Z,14.57
2023-05-01T15:54:32.826Z,23.90
2023-05-01T15:57:02.313Z,20.97
2023-05-01T15:59:31.029Z,15.90
2023-05-01T16:01:59.322Z,15.23
2023-05-01T16:04:27.957Z,24.93
2023-05-01T16:06:56.447Z,14.73
2023-05-01T16:09:32.232Z,14.60
2023-05-01T16:12:03.367Z,25.33
2023-05-01T16:14:32.149Z,28.33
2023-05-01T16:17:00.649Z,22.40
2023-05-01T16:19:30.553Z,16.77
2023-05-01T16:21:59.131Z,22.90
2023-05-01T16:24:28.711Z,14.53
2023-05-01T16:26:57.324Z,19.33
2023-05-01T16:29:25.864Z,18.40
2023-05-01T16:31:54.507Z,23.33
2023-05-01T16:34:25.755Z,21.07
2023-05-01T16:36:54.873Z,15.23
2023-05-01T16:39:24.079Z,17.93
2023-05-01T16:41:54.790Z,19.27
2023-05-01T16:44:24.041Z,22.73
2023-05-01T16:46:54.878Z,11.23
2023-05-01T16:49:24.005Z,17.27
2023-05-01T16:51:56.720Z,20.47
2023-05-01T16:54:25.293Z,29.03
2023-05-01T16:56:54.941Z,20.27
2023-05-01T16:59:23.829Z,29.90
2023-05-01T17:01:52.446Z,18.43
2023-05-01T17:04:20.911Z,26.13
2023-05-01T17:06:49.768Z,25.03
2023-05-01T17:09:18.088Z,16.07
2023-05-01T17:11:46.583Z,19.00
2023-05-01T17:14:16.756Z,25.07
2023-05-01T17:16:46.295Z,21.93
2023-05-01T17:19:16.527Z,24.13
2023-05-01T17:21:44.995Z,20.17
2023-05-01T17:24:14.150Z,22.27
2023-05-01T17:26:42.693Z,23.57
2023-05-01T17:29:11.308Z,20.50
2023-05-01T17:31:41.121Z,15.20
2023-05-01T17:34:09.710Z,15.33
2023-05-01T17:36:38.266Z,20.93
2023-05-01T17:39:06.533Z,21.60
2023-05-01T17:41:34.714Z,21.17
2023-05-01T17:44:02.909Z,19.93
2023-05-01T17:46:31.182Z,20.63
2023-05-01T17:49:01.165Z,26.70
2023-05-01T17:51:29.469Z,24.63
2023-05-01T17:53:57.914Z,28.63
2023-05-01T17:56:27.002Z,25.77
2023-05-01T17:58:55.427Z,21.50
2023-05-01T18:01:23.891Z,24.10
2023-05-01T18:03:52.692Z,21.33
2023-05-01T18:06:22.642Z,24.13
2023-05-01T18:08:50.950Z,26.63
2023-05-01T18:11:19.459Z,17.13
2023-05-01T18:13:48.347Z,26.33
2023-05-01T18:16:17.443Z,15.07
2023-05-01T18:18:45.859Z,28.57
2023-05-01T18:21:14.722Z,22.93
2023-05-01T18:23:46.381Z,24.83
2023-05-01T18:26:14.628Z,22.03
2023-05-01T18:28:43.025Z,18.17
2023-05-01T18:31:11.675Z,17.23
2023-05-01T18:33:39.859Z,22.87
2023-05-01T18:36:09.960Z,11.67
2023-05-01T18:38:38.467Z,17.60
2023-05-01T18:41:08.050Z,12.50
2023-05-01T18:43:36.641Z,27.10
2023-05-01T18:46:04.789Z,17.47
2023-05-01T18:48:32.990Z,16.20
2023-05-01T18:51:07.681Z,23.93
2023-05-01T18:53:36.563Z,15.67
2023-05-01T18:56:05.310Z,15.13
2023-05-01T18:58:34.845Z,14.07
2023-05-01T19:01:03.573Z,14.90
2023-05-01T19:03:31.822Z,20.77
2023-05-01T19:06:00.223Z,19.37
2023-05-01T19:08:28.702Z,12.10
2023-05-01T19:10:57.042Z,19.73
2023-05-01T19:13:25.332Z,12.83
2023-05-01T19:15:55.084Z,13.77
2023-05-01T19:18:23.831Z,14.87
2023-05-01T19:20:51.897Z,13.47
2023-05-01T19:23:20.518Z,22.70
2023-05-01T19:25:48.739Z,20.43
2023-05-01T19:28:16.883Z,6.27
2023-05-01T19:30:45.175Z,16.03
2023-05-01T19:33:14.956Z,15.07
2023-05-01T19:35:43.161Z,21.13
2023-05-01T19:38:11.417Z,17.77
2023-05-01T19:40:42.481Z,14.87
2023-05-01T19:43:10.646Z,18.00
2023-05-01T19:45:38.926Z,13.83
2023-05-01T19:48:08.055Z,13.80
2023-05-01T19:50:37.750Z,11.53
2023-05-01T19:53:06.335Z,10.07
2023-05-01T19:55:34.752Z,13.77
2023-05-01T19:58:04.632Z,17.70
2023-05-01T20:00:32.951Z,6.20
2023-05-01T20:03:01.755Z,16.73
2023-05-01T20:05:31.549Z,14.50
2023-05-01T20:08:02.099Z,16.83
2023-05-01T20:10:30.534Z,14.23
2023-05-01T20:12:58.665Z,10.13
2023-05-01T20:15:26.963Z,14.23
2023-05-01T20:17:55.719Z,12.73
2023-05-01T20:20:24.420Z,11.97
2023-05-01T20:22:53.216Z,7.80
2023-05-01T20:25:23.054Z,11.20
2023-05-01T20:27:51.663Z,9.93
2023-05-01T20:30:19.912Z,17.53
2023-05-01T20:32:49.078Z,12.50
2023-05-01T20:35:17.609Z,14.90
2023-05-01T20:37:45.731Z,14.83
2023-05-01T20:40:16.841Z,17.47
2023-05-01T20:42:46.647Z,15.10
2023-05-01T20:45:14.746Z,22.63
2023-05-01T20:47:42.962Z,18.93
2023-05-01T20:50:11.917Z,22.43
2023-05-01T20:52:40.351Z,17.40
2023-05-01T20:55:09.630Z,15.43
2023-05-01T20:57:38.359Z,13.67
2023-05-01T21:00:09.652Z,15.23
2023-05-01T21:02:38.760Z,18.80
2023-05-01T21:05:09.025Z,21.37
2023-05-01T21:07:38.334Z,12.20
2023-05-01T21:10:07.838Z,19.27
2023-05-01T21:12:36.092Z,20.50
2023-05-01T21:15:05.201Z,17.13
2023-05-01T21:17:38.685Z,16.50
2023-05-01T21:20:13.591Z,17.90
2023-05-01T21:22:45.531Z,22.60
2023-05-01T21:25:16.431Z,16.33
2023-05-01T21:27:44.934Z,14.60
2023-05-01T21:30:17.255Z,16.67
2023-05-01T21:32:47.559Z,22.87
2023-05-01T21:35:17.918Z,14.20
2023-05-01T21:37:46.898Z,13.03
2023-05-01T21:40:15.881Z,17.53
2023-05-01T21:42:44.052Z,11.93
2023-05-01T21:45:14.531Z,15.93
2023-05-01T21:47:44.506Z,13.20
2023-05-01T21:50:15.694Z,18.30
2023-05-01T21:52:44.871Z,26.83
2023-05-01T21:55:18.918Z,12.80
2023-05-01T21:57:47.671Z,19.80
2023-05-01T22:00:16.346Z,7.73
2023-05-01T22:02:45.899Z,22.33
2023-05-01T22:05:17.949Z,17.97
2023-05-01T22:07:47.801Z,15.37
2023-05-01T22:10:18.738Z,15.97
2023-05-01T22:12:48.873Z,12.00
2023-05-01T22:15:17.325Z,11.30
2023-05-01T22:17:46.488Z,21.53
2023-05-01T22:20:16.294Z,24.70
2023-05-01T22:22:44.967Z,8.80
2023-05-01T22:25:13.428Z,15.70
2023-05-01T22:27:41.823Z,18.47
2023-05-01T22:30:11.215Z,19.63
2023-05-01T22:32:39.741Z,17.57
2023-05-01T22:35:08.991Z,15.77
2023-05-01T22:37:38.868Z,11.23
2023-05-01T22:40:09.040Z,22.13
2023-05-01T22:42:37.209Z,16.63
2023-05-01T22:45:07.175Z,21.50
2023-05-01T22:47:35.564Z,18.77
2023-05-01T22:50:03.836Z,13.83
2023-05-01T22:52:32.170Z,15.17
2023-05-01T22:55:02.204Z,32.53
2023-05-01T22:57:30.558Z,17.23
2023-05-01T22:59:59.027Z,14.73
2023-05-01T23:02:28.503Z,14.10
2023-05-01T23:04:56.719Z,3.93
2023-05-01T23:07:24.948Z,11.07
2023-05-01T23:09:53.624Z,3.63
2023-05-01T23:12:25.702Z,1.97
2023-05-01T23:14:54.148Z,4.33
2023-05-01T23:17:22.620Z,1.50
2023-05-01T23:19:51.613Z,0.70
2023-05-01T23:22:21.089Z,1.37
2023-05-01T23:24:50.516Z,0.50
2023-05-01T23:27:19.959Z,0.60
2023-05-01T23:29:55.550Z,0.60
2023-05-01T23:32:26.444Z,0.53
2023-05-01T23:34:55.940Z,0.87
2023-05-01T23:37:24.596Z,1.50
2023-05-01T23:39:53.657Z,0.60
2023-05-01T23:42:23.150Z,0.53
2023-05-01T23:44:52.929Z,2.73
2023-05-01T23:47:21.726Z,0.70
2023-05-01T23:49:50.622Z,0.70
2023-05-01T23:52:18.869Z,1.17
2023-05-01T23:54:47.118Z,0.43
2023-05-01T23:57:15.677Z,0.57
2023-05-01T23:59:43.845Z,0.50
